Time;durP1;ratioP1;P1;durP2;ratioP2;P2;SDS_P1;SDS_P2;PMS_P1;PMS_P2;Temp;Humidity;BMP_temperature;BMP_pressure;BME280_temperature;BME280_humidity;BME280_pressure;Samples;Min_cycle;Max_cycle;Signal;HPM_P1;HPM_P2
2022/03/02 00:00:09;;;;;;;13.07;6.32;;;;;;;;;;5088323;28;20110;-60
2022/03/02 00:02:35;;;;;;;13.23;5.93;;;;;;;;;;5090585;28;20028;-59
2022/03/02 00:05:00;;;;;;;14.65;5.97;;;;;;;;;;5088901;28;20024;-58
2022/03/02 00:07:26;;;;;;;15.75;6.05;;;;;;;;;;5090029;28;20119;-60
2022/03/02 00:09:51;;;;;;;12.20;5.82;;;;;;;;;;5089016;28;20110;-61
2022/03/02 00:12:17;;;;;;;12.50;5.95;;;;;;;;;;5091765;28;20106;-59
2022/03/02 00:14:42;;;;;;;15.85;6.63;;;;;;;;;;5090293;28;20177;-58
2022/03/02 00:17:09;;;;;;;12.85;5.63;;;;;;;;;;5088840;28;21688;-61
2022/03/02 00:19:35;;;;;;;15.55;5.70;;;;;;;;;;5089833;28;20024;-59
2022/03/02 00:22:00;;;;;;;12.55;5.65;;;;;;;;;;5049052;28;20056;-58
2022/03/02 00:24:35;;;;;;;9.27;4.97;;;;;;;;;;1644139;28;10022838;-57
2022/03/02 00:27:00;;;;;;;12.40;6.05;;;;;;;;;;4037118;28;10001465;-59
2022/03/02 00:29:26;;;;;;;10.07;5.20;;;;;;;;;;5088718;28;20027;-59
2022/03/02 00:31:52;;;;;;;10.77;5.13;;;;;;;;;;5090426;28;20078;-61
2022/03/02 00:34:18;;;;;;;9.98;5.28;;;;;;;;;;5090126;28;20066;-59
2022/03/02 00:36:43;;;;;;;10.35;5.07;;;;;;;;;;5089837;28;20114;-58
2022/03/02 00:39:09;;;;;;;10.98;5.15;;;;;;;;;;5090320;28;20028;-59
2022/03/02 00:41:34;;;;;;;10.50;5.40;;;;;;;;;;5088449;28;20036;-59
2022/03/02 00:44:01;;;;;;;12.85;5.50;;;;;;;;;;5091017;28;20093;-61
2022/03/02 00:46:29;;;;;;;10.45;5.07;;;;;;;;;;5091222;28;20101;-59
2022/03/02 00:48:59;;;;;;;8.77;5.10;;;;;;;;;;5089165;28;20036;-58
2022/03/02 00:51:26;;;;;;;10.50;5.60;;;;;;;;;;5089311;28;20032;-57
2022/03/02 00:53:55;;;;;;;10.95;5.00;;;;;;;;;;5086719;28;20024;-58
2022/03/02 00:56:22;;;;;;;9.40;5.07;;;;;;;;;;5090511;28;20047;-58
2022/03/02 00:58:48;;;;;;;12.35;5.22;;;;;;;;;;5089532;28;20024;-57
2022/03/02 01:01:14;;;;;;;8.85;4.63;;;;;;;;;;5090089;28;20039;-58
2022/03/02 01:03:39;;;;;;;11.27;5.00;;;;;;;;;;5088222;28;20021;-59
2022/03/02 01:06:05;;;;;;;10.13;4.65;;;;;;;;;;5086174;28;20024;-59
2022/03/02 01:08:32;;;;;;;10.30;5.22;;;;;;;;;;5085945;28;20401;-58
2022/03/02 01:10:57;;;;;;;8.07;4.45;;;;;;;;;;5088946;28;20564;-59
2022/03/02 01:13:22;;;;;;;10.70;4.40;;;;;;;;;;5090681;28;20028;-59
2022/03/02 01:15:48;;;;;;;6.78;3.88;;;;;;;;;;5090359;28;20043;-60
2022/03/02 01:18:23;;;;;;;5.75;3.43;;;;;;;;;;3402758;28;10023581;-59
2022/03/02 01:20:49;;;;;;;8.20;4.20;;;;;;;;;;2280303;28;10001813;-59
2022/03/02 01:23:14;;;;;;;11.85;4.40;;;;;;;;;;5086709;28;20039;-58
2022/03/02 01:25:40;;;;;;;9.32;4.78;;;;;;;;;;5089091;28;20032;-58
2022/03/02 01:28:05;;;;;;;6.57;4.07;;;;;;;;;;5088714;28;20031;-59
2022/03/02 01:30:30;;;;;;;7.40;3.85;;;;;;;;;;5088158;28;20051;-59
2022/03/02 01:32:56;;;;;;;7.57;4.20;;;;;;;;;;5089050;28;20016;-59
2022/03/02 01:35:21;;;;;;;7.05;4.25;;;;;;;;;;5088654;28;20392;-59
2022/03/02 01:37:47;;;;;;;7.60;3.75;;;;;;;;;;5090387;28;20058;-60
2022/03/02 01:40:13;;;;;;;7.68;4.35;;;;;;;;;;5087236;28;20020;-60
2022/03/02 01:42:40;;;;;;;10.05;4.50;;;;;;;;;;5088309;28;20039;-61
2022/03/02 01:45:07;;;;;;;6.35;3.92;;;;;;;;;;5089173;28;20028;-61
2022/03/02 01:47:33;;;;;;;8.07;4.15;;;;;;;;;;5088681;28;20055;-60
2022/03/02 01:50:00;;;;;;;8.23;4.22;;;;;;;;;;5089658;28;20024;-57
2022/03/02 01:52:26;;;;;;;7.25;3.90;;;;;;;;;;5073421;28;20023;-62
2022/03/02 01:54:51;;;;;;;8.60;3.90;;;;;;;;;;5088645;28;20164;-59
2022/03/02 01:57:17;;;;;;;6.53;4.30;;;;;;;;;;5089719;28;20055;-59
2022/03/02 01:59:42;;;;;;;13.48;4.65;;;;;;;;;;5087986;28;20039;-60
2022/03/02 02:02:08;;;;;;;6.75;4.38;;;;;;;;;;5070679;28;20039;-61
2022/03/02 02:04:33;;;;;;;7.88;3.88;;;;;;;;;;5082953;28;20031;-60
2022/03/02 02:06:59;;;;;;;7.90;4.03;;;;;;;;;;5084352;28;20043;-62
2022/03/02 02:09:25;;;;;;;7.05;3.72;;;;;;;;;;5084968;28;20038;-60
2022/03/02 02:11:50;;;;;;;7.15;4.10;;;;;;;;;;5086783;28;20088;-59
2022/03/02 02:14:15;;;;;;;7.65;3.85;;;;;;;;;;5086857;28;20124;-59
2022/03/02 02:16:41;;;;;;;6.60;4.25;;;;;;;;;;5085886;28;20028;-60
2022/03/02 02:19:06;;;;;;;6.78;3.92;;;;;;;;;;5068004;28;20660;-60
2022/03/02 02:21:32;;;;;;;8.30;4.18;;;;;;;;;;5084963;28;20032;-60
2022/03/02 02:23:57;;;;;;;8.15;4.07;;;;;;;;;;5085073;28;20056;-60
2022/03/02 02:26:25;;;;;;;7.68;3.33;;;;;;;;;;5069269;28;20046;-60
2022/03/02 02:28:58;;;;;;;5.95;3.90;;;;;;;;;;5086578;28;20035;-60
2022/03/02 02:31:24;;;;;;;6.95;3.90;;;;;;;;;;5086491;28;20047;-55
2022/03/02 02:33:51;;;;;;;8.00;3.67;;;;;;;;;;5084945;28;20043;-60
2022/03/02 02:36:18;;;;;;;6.47;3.97;;;;;;;;;;5084341;28;20085;-60
2022/03/02 02:38:44;;;;;;;10.27;4.28;;;;;;;;;;5086437;28;20405;-61
2022/03/02 02:41:09;;;;;;;7.38;4.32;;;;;;;;;;5086189;28;20027;-59
2022/03/02 02:43:35;;;;;;;7.78;4.05;;;;;;;;;;5084509;28;20043;-61
2022/03/02 02:46:03;;;;;;;8.07;3.97;;;;;;;;;;5088164;28;20067;-56
2022/03/02 02:48:28;;;;;;;9.50;4.10;;;;;;;;;;5090337;28;20024;-59
2022/03/02 02:50:54;;;;;;;11.63;4.45;;;;;;;;;;5089613;28;20044;-60
2022/03/02 02:53:19;;;;;;;8.15;4.40;;;;;;;;;;5089825;28;20024;-60
2022/03/02 02:55:48;;;;;;;6.90;4.10;;;;;;;;;;5090774;28;20031;-59
2022/03/02 02:58:13;;;;;;;7.75;4.28;;;;;;;;;;5089777;28;20055;-60
2022/03/02 03:00:42;;;;;;;7.88;4.35;;;;;;;;;;5088974;28;20101;-58
2022/03/02 03:03:08;;;;;;;7.45;4.25;;;;;;;;;;5088804;28;20031;-59
2022/03/02 03:05:34;;;;;;;6.25;3.60;;;;;;;;;;5090243;28;20028;-60
2022/03/02 03:08:04;;;;;;;9.27;4.32;;;;;;;;;;5088862;28;20035;-59
2022/03/02 03:10:30;;;;;;;10.25;3.45;;;;;;;;;;5089876;28;20052;-59
2022/03/02 03:12:57;;;;;;;5.40;3.45;;;;;;;;;;5088346;28;20019;-65
2022/03/02 03:15:23;;;;;;;7.25;3.60;;;;;;;;;;5090097;28;20026;-60
2022/03/02 03:17:49;;;;;;;8.02;3.92;;;;;;;;;;5088997;28;20023;-64
2022/03/02 03:20:17;;;;;;;7.75;3.30;;;;;;;;;;5089372;28;20055;-61
2022/03/02 03:22:43;;;;;;;10.48;3.50;;;;;;;;;;5087325;28;20699;-61
2022/03/02 03:25:12;;;;;;;6.07;3.65;;;;;;;;;;5090094;28;20024;-58
2022/03/02 03:27:39;;;;;;;6.22;3.60;;;;;;;;;;5088143;28;20103;-59
2022/03/02 03:30:06;;;;;;;6.65;3.80;;;;;;;;;;5091140;28;20424;-59
2022/03/02 03:32:31;;;;;;;8.82;3.65;;;;;;;;;;5088826;28;20045;-60
2022/03/02 03:34:57;;;;;;;6.50;3.83;;;;;;;;;;5089417;28;20028;-59
2022/03/02 03:37:23;;;;;;;9.20;4.07;;;;;;;;;;5089237;28;20047;-62
2022/03/02 03:39:48;;;;;;;8.10;3.90;;;;;;;;;;5088147;28;20070;-60
2022/03/02 03:42:14;;;;;;;5.63;3.75;;;;;;;;;;5089350;28;20111;-59
2022/03/02 03:44:39;;;;;;;6.18;3.47;;;;;;;;;;5090231;28;20054;-60
2022/03/02 03:47:06;;;;;;;7.20;3.80;;;;;;;;;;5087596;28;20092;-60
2022/03/02 03:49:31;;;;;;;5.70;3.53;;;;;;;;;;5089650;28;20030;-59
2022/03/02 03:51:56;;;;;;;5.45;3.50;;;;;;;;;;5088866;28;20115;-60
2022/03/02 03:54:22;;;;;;;6.60;3.58;;;;;;;;;;5087196;28;20027;-60
2022/03/02 03:56:47;;;;;;;9.75;4.13;;;;;;;;;;5091015;28;20115;-60
2022/03/02 03:59:13;;;;;;;6.10;3.67;;;;;;;;;;5089168;28;20020;-58
2022/03/02 04:01:40;;;;;;;9.48;4.10;;;;;;;;;;4674029;28;10000985;-58
2022/03/02 04:04:06;;;;;;;5.90;4.00;;;;;;;;;;699840;28;10001999;-60
2022/03/02 04:06:31;;;;;;;9.85;3.97;;;;;;;;;;5089296;28;20028;-58
2022/03/02 04:08:57;;;;;;;6.38;3.72;;;;;;;;;;5088261;28;20115;-60
2022/03/02 04:11:22;;;;;;;7.40;4.00;;;;;;;;;;5087946;28;20024;-59
2022/03/02 04:13:47;;;;;;;7.13;3.78;;;;;;;;;;5088246;28;20031;-60
2022/03/02 04:16:13;;;;;;;6.18;3.85;;;;;;;;;;5087011;28;20043;-59
2022/03/02 04:18:38;;;;;;;6.03;3.83;;;;;;;;;;5088729;28;20380;-61
2022/03/02 04:21:04;;;;;;;9.63;4.35;;;;;;;;;;5087993;28;20028;-62
2022/03/02 04:23:30;;;;;;;6.43;3.70;;;;;;;;;;5071516;28;20020;-58
2022/03/02 04:25:55;;;;;;;7.80;4.20;;;;;;;;;;5089304;28;20020;-61
2022/03/02 04:28:21;;;;;;;7.05;4.00;;;;;;;;;;5087672;28;20020;-58
2022/03/02 04:30:47;;;;;;;9.55;4.28;;;;;;;;;;5088393;28;20032;-58
2022/03/02 04:33:13;;;;;;;8.52;4.10;;;;;;;;;;5088570;28;20030;-61
2022/03/02 04:35:40;;;;;;;5.70;3.67;;;;;;;;;;5089418;28;20388;-59
2022/03/02 04:38:06;;;;;;;7.20;3.78;;;;;;;;;;5088747;28;20024;-60
2022/03/02 04:40:32;;;;;;;8.93;4.00;;;;;;;;;;5088387;28;20020;-62
2022/03/02 04:42:58;;;;;;;11.18;4.20;;;;;;;;;;5087032;28;20052;-61
2022/03/02 04:45:27;;;;;;;8.40;4.25;;;;;;;;;;5069383;28;20386;-61
2022/03/02 04:47:57;;;;;;;7.57;3.97;;;;;;;;;;5086447;28;20333;-61
2022/03/02 04:50:23;;;;;;;6.35;4.00;;;;;;;;;;5088284;28;20027;-60
2022/03/02 04:52:50;;;;;;;6.90;4.20;;;;;;;;;;5091285;28;20036;-62
2022/03/02 04:55:16;;;;;;;8.25;4.30;;;;;;;;;;5084001;28;20028;-60
2022/03/02 04:57:48;;;;;;;8.30;4.10;;;;;;;;;;5087581;28;20056;-60
2022/03/02 05:00:39;;;;;;;6.75;3.67;;;;;;;;;;5085557;28;20081;-59
2022/03/02 05:03:06;;;;;;;7.05;4.00;;;;;;;;;;5083291;28;20475;-60
2022/03/02 05:05:34;;;;;;;13.40;4.53;;;;;;;;;;5087353;28;20038;-63
2022/03/02 05:08:11;;;;;;;6.40;3.90;;;;;;;;;;2405002;28;10022846;-61
2022/03/02 05:10:37;;;;;;;7.97;4.00;;;;;;;;;;3333289;28;10001061;-61
2022/03/02 05:13:02;;;;;;;9.80;4.00;;;;;;;;;;5061846;28;21259;-59
2022/03/02 05:15:41;;;;;;;7.30;3.90;;;;;;;;;;2465416;28;10022783;-60
2022/03/02 05:18:06;;;;;;;7.32;3.90;;;;;;;;;;3334390;28;10001396;-61
2022/03/02 05:20:31;;;;;;;7.90;4.18;;;;;;;;;;5088493;28;20112;-61
2022/03/02 05:22:57;;;;;;;13.25;4.43;;;;;;;;;;5088825;28;20434;-61
2022/03/02 05:25:24;;;;;;;7.15;4.13;;;;;;;;;;5087091;28;20053;-63
2022/03/02 05:27:50;;;;;;;12.02;4.65;;;;;;;;;;5088799;28;20028;-61
2022/03/02 05:30:16;;;;;;;8.90;3.95;;;;;;;;;;5086317;28;20046;-61
2022/03/02 05:32:42;;;;;;;10.18;4.43;;;;;;;;;;5071139;28;20043;-62
2022/03/02 05:35:08;;;;;;;9.25;4.07;;;;;;;;;;5086534;28;20711;-61
2022/03/02 05:37:34;;;;;;;9.65;4.45;;;;;;;;;;5088394;28;20039;-62
2022/03/02 05:40:00;;;;;;;7.22;4.07;;;;;;;;;;5071169;28;20063;-61
2022/03/02 05:42:26;;;;;;;7.88;4.47;;;;;;;;;;5087765;28;20032;-62
2022/03/02 05:44:51;;;;;;;10.73;4.13;;;;;;;;;;5084390;28;20423;-61
2022/03/02 05:47:17;;;;;;;9.68;4.47;;;;;;;;;;5069998;28;20028;-60
2022/03/02 05:49:42;;;;;;;10.05;5.13;;;;;;;;;;5087266;28;20634;-61
2022/03/02 05:52:07;;;;;;;8.98;4.45;;;;;;;;;;5088348;28;20042;-61
2022/03/02 05:54:33;;;;;;;7.80;4.53;;;;;;;;;;5086354;28;20051;-61
2022/03/02 05:56:58;;;;;;;12.40;5.35;;;;;;;;;;5087849;28;20027;-61
2022/03/02 05:59:23;;;;;;;9.52;4.35;;;;;;;;;;5086392;28;20051;-61
2022/03/02 06:01:49;;;;;;;8.27;4.38;;;;;;;;;;5086976;28;20419;-61
2022/03/02 06:04:15;;;;;;;12.05;4.57;;;;;;;;;;5087360;28;20023;-59
2022/03/02 06:06:41;;;;;;;9.65;4.88;;;;;;;;;;5087329;28;20028;-59
2022/03/02 06:09:09;;;;;;;12.48;5.32;;;;;;;;;;5085092;28;20103;-59
2022/03/02 06:11:37;;;;;;;11.43;4.85;;;;;;;;;;5086488;28;20039;-60
2022/03/02 06:14:03;;;;;;;7.90;4.50;;;;;;;;;;5086815;28;20456;-58
2022/03/02 06:16:29;;;;;;;11.27;5.00;;;;;;;;;;5085112;28;20133;-59
2022/03/02 06:18:54;;;;;;;12.48;4.90;;;;;;;;;;5084816;28;20107;-60
2022/03/02 06:21:30;;;;;;;12.35;5.07;;;;;;;;;;5089615;28;20024;-61
2022/03/02 06:23:56;;;;;;;10.82;4.47;;;;;;;;;;5089105;28;20055;-60
2022/03/02 06:26:24;;;;;;;11.05;4.90;;;;;;;;;;5092625;28;20484;-61
2022/03/02 06:28:51;;;;;;;11.10;4.70;;;;;;;;;;5090902;28;20027;-60
2022/03/02 06:31:18;;;;;;;13.23;6.22;;;;;;;;;;5091262;28;20090;-60
2022/03/02 06:33:43;;;;;;;12.95;5.43;;;;;;;;;;5089311;28;20023;-60
2022/03/02 06:36:09;;;;;;;12.32;5.30;;;;;;;;;;5091070;28;20051;-62
2022/03/02 06:38:34;;;;;;;11.27;5.20;;;;;;;;;;5092467;28;20039;-60
2022/03/02 06:41:11;;;;;;;12.63;5.22;;;;;;;;;;5089961;28;20440;-59
2022/03/02 06:43:46;;;;;;;17.73;5.85;;;;;;;;;;5091099;28;20036;-60
2022/03/02 06:46:19;;;;;;;12.50;5.40;;;;;;;;;;5092413;28;20042;-60
2022/03/02 06:49:23;;;;;;;11.70;4.78;;;;;;;;;;5092378;28;20029;-63
2022/03/02 06:51:54;;;;;;;13.35;5.18;;;;;;;;;;5057776;28;20123;-60
2022/03/02 06:54:26;;;;;;;10.68;5.72;;;;;;;;;;5088287;28;20657;-60
2022/03/02 06:56:55;;;;;;;19.48;5.53;;;;;;;;;;5091591;28;20065;-60
2022/03/02 06:59:38;;;;;;;18.33;5.55;;;;;;;;;;5091844;28;20151;-60
2022/03/02 07:02:04;;;;;;;15.52;5.60;;;;;;;;;;5089999;28;20493;-60
2022/03/02 07:04:45;;;;;;;9.55;4.67;;;;;;;;;;4095470;28;10001852;-59
2022/03/02 07:07:13;;;;;;;9.30;5.40;;;;;;;;;;1754554;28;10002072;-59
2022/03/02 07:09:39;;;;;;;11.60;5.57;;;;;;;;;;5090337;28;20123;-60
2022/03/02 07:12:06;;;;;;;8.88;5.43;;;;;;;;;;5089038;28;20487;-59
2022/03/02 07:14:33;;;;;;;13.05;5.95;;;;;;;;;;5072323;28;20438;-61
2022/03/02 07:17:00;;;;;;;12.23;5.97;;;;;;;;;;5089541;28;20046;-60
2022/03/02 07:19:27;;;;;;;11.93;5.72;;;;;;;;;;5089206;28;21097;-60
2022/03/02 07:21:53;;;;;;;18.45;6.72;;;;;;;;;;5087923;28;20023;-60
2022/03/02 07:24:22;;;;;;;13.13;5.93;;;;;;;;;;5088573;28;20464;-60
2022/03/02 07:26:53;;;;;;;11.40;5.70;;;;;;;;;;5088818;28;20030;-60
2022/03/02 07:29:20;;;;;;;14.57;6.25;;;;;;;;;;5089371;28;20036;-59
2022/03/02 07:31:46;;;;;;;11.77;6.05;;;;;;;;;;5087414;28;20035;-60
2022/03/02 07:34:14;;;;;;;14.68;6.38;;;;;;;;;;5088658;28;20539;-59
2022/03/02 07:36:40;;;;;;;13.65;6.28;;;;;;;;;;5088735;28;20536;-60
2022/03/02 07:39:07;;;;;;;13.55;5.93;;;;;;;;;;5090773;28;21125;-61
2022/03/02 07:41:32;;;;;;;13.60;5.90;;;;;;;;;;5088752;28;20473;-61
2022/03/02 07:43:58;;;;;;;17.85;5.75;;;;;;;;;;5089138;28;20028;-61
2022/03/02 07:46:25;;;;;;;12.73;5.85;;;;;;;;;;5087057;28;20036;-60
2022/03/02 07:48:50;;;;;;;10.85;6.05;;;;;;;;;;5089253;28;21752;-60
2022/03/02 07:51:16;;;;;;;13.93;6.03;;;;;;;;;;5073223;28;20040;-60
2022/03/02 07:53:43;;;;;;;13.60;5.90;;;;;;;;;;5090013;28;20043;-60
2022/03/02 07:56:10;;;;;;;12.50;6.05;;;;;;;;;;5089040;28;20024;-59
2022/03/02 07:58:39;;;;;;;20.83;6.90;;;;;;;;;;5025669;28;21656;-59
2022/03/02 08:01:22;;;;;;;14.25;5.60;;;;;;;;;;496786;28;10022985;-60
2022/03/02 08:03:47;;;;;;;13.93;5.60;;;;;;;;;;5090028;28;20243;-60
2022/03/02 08:06:13;;;;;;;12.30;5.82;;;;;;;;;;5088298;28;20959;-59
2022/03/02 08:08:39;;;;;;;12.23;5.82;;;;;;;;;;5090575;28;20367;-58
2022/03/02 08:11:06;;;;;;;13.95;5.63;;;;;;;;;;5089074;28;20468;-59
2022/03/02 08:13:34;;;;;;;12.25;4.30;;;;;;;;;;5090052;28;20131;-60
2022/03/02 08:16:00;;;;;;;9.52;4.00;;;;;;;;;;5086658;28;20034;-60
2022/03/02 08:18:26;;;;;;;8.30;3.58;;;;;;;;;;5091894;28;20043;-59
2022/03/02 08:20:53;;;;;;;7.82;3.42;;;;;;;;;;5088041;28;20449;-60
2022/03/02 08:23:21;;;;;;;6.13;3.67;;;;;;;;;;5089728;28;20046;-59
2022/03/02 08:25:55;;;;;;;6.35;3.47;;;;;;;;;;5087583;28;20397;-59
2022/03/02 08:28:23;;;;;;;7.00;4.10;;;;;;;;;;5072715;28;20024;-60
2022/03/02 08:30:52;;;;;;;7.03;3.92;;;;;;;;;;5090202;28;20031;-61
2022/03/02 08:33:29;;;;;;;9.23;4.05;;;;;;;;;;5088119;28;20500;-59
2022/03/02 08:35:57;;;;;;;8.02;3.83;;;;;;;;;;5072001;28;20077;-60
2022/03/02 08:38:25;;;;;;;7.00;3.58;;;;;;;;;;5088076;28;20605;-60
2022/03/02 08:40:51;;;;;;;6.60;3.50;;;;;;;;;;5086292;28;20024;-60
2022/03/02 08:43:17;;;;;;;7.68;3.72;;;;;;;;;;5087792;28;20040;-62
2022/03/02 08:45:45;;;;;;;6.82;3.70;;;;;;;;;;5087177;28;20030;-60
2022/03/02 08:48:14;;;;;;;8.57;3.30;;;;;;;;;;5086455;28;20075;-60
2022/03/02 08:50:40;;;;;;;13.32;3.92;;;;;;;;;;5089639;28;20036;-61
2022/03/02 08:53:05;;;;;;;8.05;3.80;;;;;;;;;;5088485;28;20023;-63
2022/03/02 08:55:32;;;;;;;6.00;3.50;;;;;;;;;;5090487;28;20031;-60
2022/03/02 08:57:58;;;;;;;6.45;3.67;;;;;;;;;;5087927;28;20032;-59
2022/03/02 09:00:24;;;;;;;9.23;3.47;;;;;;;;;;5086267;28;20024;-60
2022/03/02 09:02:52;;;;;;;5.72;3.70;;;;;;;;;;5085008;28;20763;-60
2022/03/02 09:05:18;;;;;;;9.23;3.80;;;;;;;;;;5085754;28;20067;-61
2022/03/02 09:07:45;;;;;;;6.45;3.95;;;;;;;;;;5086442;28;20027;-61
2022/03/02 09:10:10;;;;;;;7.35;3.80;;;;;;;;;;5086429;28;20218;-62
2022/03/02 09:12:36;;;;;;;6.38;3.42;;;;;;;;;;5087812;28;20181;-60
2022/03/02 09:15:01;;;;;;;7.13;3.80;;;;;;;;;;5088472;28;20032;-60
2022/03/02 09:17:28;;;;;;;10.93;4.07;;;;;;;;;;5087173;28;20040;-60
2022/03/02 09:19:54;;;;;;;7.75;3.92;;;;;;;;;;5088852;28;20165;-59
2022/03/02 09:22:23;;;;;;;6.07;3.45;;;;;;;;;;5088414;28;20028;-60
2022/03/02 09:24:48;;;;;;;9.52;3.95;;;;;;;;;;5088335;28;20024;-61
2022/03/02 09:27:17;;;;;;;8.35;4.00;;;;;;;;;;5085901;28;20024;-60
2022/03/02 09:29:46;;;;;;;6.57;3.78;;;;;;;;;;5085003;28;20043;-62
2022/03/02 09:32:13;;;;;;;8.95;4.00;;;;;;;;;;5085347;28;20039;-61
2022/03/02 09:34:40;;;;;;;6.15;3.53;;;;;;;;;;5086405;28;20034;-62
2022/03/02 09:37:11;;;;;;;7.97;4.00;;;;;;;;;;5086410;28;20031;-62
2022/03/02 09:39:37;;;;;;;5.30;3.65;;;;;;;;;;5036221;28;20179;-61
2022/03/02 09:42:34;;;;;;;7.65;3.75;;;;;;;;;;2164253;28;10023717;-60
2022/03/02 09:45:04;;;;;;;6.55;4.15;;;;;;;;;;3682218;28;10001346;-59
2022/03/02 09:47:45;;;;;;;8.65;3.80;;;;;;;;;;5086117;28;20028;-60
2022/03/02 09:50:14;;;;;;;12.05;4.30;;;;;;;;;;5090003;28;20424;-57
2022/03/02 09:52:41;;;;;;;8.65;4.18;;;;;;;;;;5085505;28;20379;-58
2022/03/02 09:55:12;;;;;;;9.45;4.13;;;;;;;;;;5086161;28;20349;-59
2022/03/02 09:57:47;;;;;;;7.38;3.70;;;;;;;;;;5086259;28;20024;-57
2022/03/02 10:00:15;;;;;;;7.55;3.58;;;;;;;;;;5087867;28;20050;-57
2022/03/02 10:02:46;;;;;;;7.20;3.50;;;;;;;;;;5086185;28;20031;-59
2022/03/02 10:05:33;;;;;;;8.50;4.10;;;;;;;;;;5087947;28;20020;-59
2022/03/02 10:08:03;;;;;;;7.97;3.80;;;;;;;;;;5086337;28;20091;-60
2022/03/02 10:10:33;;;;;;;7.35;3.95;;;;;;;;;;5086464;28;20031;-60
2022/03/02 10:13:01;;;;;;;7.30;4.28;;;;;;;;;;5086620;28;20047;-59
2022/03/02 10:15:28;;;;;;;9.68;3.80;;;;;;;;;;5086899;28;20028;-59
2022/03/02 10:18:00;;;;;;;7.53;3.92;;;;;;;;;;5085056;28;20492;-59
2022/03/02 10:20:30;;;;;;;9.68;4.75;;;;;;;;;;5089172;28;20451;-61
2022/03/02 10:23:29;;;;;;;8.18;4.07;;;;;;;;;;5068344;28;20510;-59
2022/03/02 10:26:18;;;;;;;10.32;3.83;;;;;;;;;;5085450;28;20533;-62
2022/03/02 10:29:04;;;;;;;16.30;4.32;;;;;;;;;;5086257;28;20450;-59
2022/03/02 10:31:45;;;;;;;11.48;3.75;;;;;;;;;;5084099;28;20032;-60
2022/03/02 10:34:51;;;;;;;6.25;3.90;;;;;;;;;;5087577;28;20028;-60
2022/03/02 10:37:20;;;;;;;7.03;3.95;;;;;;;;;;5083846;28;21179;-57
2022/03/02 10:40:05;;;;;;;8.85;4.13;;;;;;;;;;5084035;28;20054;-59
2022/03/02 10:42:35;;;;;;;12.95;4.32;;;;;;;;;;5086581;28;20894;-59
2022/03/02 10:45:18;;;;;;;10.32;4.15;;;;;;;;;;5085429;28;20024;-60
2022/03/02 10:48:03;;;;;;;10.45;4.30;;;;;;;;;;5086533;28;20032;-60
2022/03/02 10:50:32;;;;;;;9.15;4.80;;;;;;;;;;5086939;28;20109;-60
2022/03/02 10:52:59;;;;;;;12.88;3.92;;;;;;;;;;5083859;28;20068;-60
2022/03/02 10:55:25;;;;;;;12.10;4.85;;;;;;;;;;5085666;28;20077;-60
2022/03/02 10:57:54;;;;;;;12.15;4.43;;;;;;;;;;5083266;28;20032;-60
2022/03/02 11:00:22;;;;;;;10.88;4.63;;;;;;;;;;5084207;28;20099;-60
2022/03/02 11:02:54;;;;;;;8.40;4.00;;;;;;;;;;5085632;28;20032;-59
2022/03/02 11:05:20;;;;;;;11.23;4.13;;;;;;;;;;5084764;28;20040;-60
2022/03/02 11:07:46;;;;;;;10.88;4.65;;;;;;;;;;5085852;28;20030;-60
2022/03/02 11:10:18;;;;;;;14.50;4.45;;;;;;;;;;5089659;28;20032;-59
2022/03/02 11:12:45;;;;;;;6.72;4.32;;;;;;;;;;5089135;28;20153;-60
2022/03/02 11:15:13;;;;;;;10.00;4.57;;;;;;;;;;5090331;28;20039;-60
2022/03/02 11:17:56;;;;;;;6.88;3.92;;;;;;;;;;5087417;28;20028;-60
2022/03/02 11:20:24;;;;;;;9.80;4.40;;;;;;;;;;5089557;28;20050;-60
2022/03/02 11:22:52;;;;;;;10.35;4.50;;;;;;;;;;5088813;28;20067;-58
2022/03/02 11:25:18;;;;;;;7.68;3.67;;;;;;;;;;5088258;28;20128;-60
2022/03/02 11:27:43;;;;;;;10.88;4.70;;;;;;;;;;5089568;28;20869;-60
2022/03/02 11:30:17;;;;;;;7.68;4.28;;;;;;;;;;5091135;28;20036;-58
2022/03/02 11:32:47;;;;;;;8.85;4.25;;;;;;;;;;5089388;28;20111;-60
2022/03/02 11:35:16;;;;;;;6.05;4.05;;;;;;;;;;5089577;28;20384;-59
2022/03/02 11:37:42;;;;;;;9.38;4.10;;;;;;;;;;5067677;28;20384;-60
2022/03/02 11:40:47;;;;;;;7.15;3.72;;;;;;;;;;2764577;28;10002535;-59
2022/03/02 11:43:19;;;;;;;9.83;4.57;;;;;;;;;;3685013;28;10001264;-60
2022/03/02 11:45:46;;;;;;;7.38;4.05;;;;;;;;;;5090627;28;20673;-59
2022/03/02 11:48:15;;;;;;;9.88;4.30;;;;;;;;;;5089022;28;20111;-62
2022/03/02 11:50:59;;;;;;;8.75;4.32;;;;;;;;;;5088279;28;20464;-60
2022/03/02 11:53:37;;;;;;;7.22;4.20;;;;;;;;;;5088666;28;20028;-59
2022/03/02 11:56:04;;;;;;;6.22;4.28;;;;;;;;;;5089642;28;20032;-59
2022/03/02 11:58:52;;;;;;;11.05;4.82;;;;;;;;;;5089222;28;20113;-60
2022/03/02 12:01:17;;;;;;;12.68;4.78;;;;;;;;;;5088336;28;20152;-60
2022/03/02 12:04:00;;;;;;;10.23;4.72;;;;;;;;;;5087697;28;20151;-60
2022/03/02 12:06:37;;;;;;;10.15;4.65;;;;;;;;;;5087852;28;20475;-60
2022/03/02 12:09:03;;;;;;;9.23;5.20;;;;;;;;;;5086896;28;20027;-60
2022/03/02 12:11:34;;;;;;;7.93;4.63;;;;;;;;;;5087805;28;20089;-58
2022/03/02 12:14:10;;;;;;;8.90;4.82;;;;;;;;;;5088471;28;20032;-60
2022/03/02 12:16:40;;;;;;;8.30;4.75;;;;;;;;;;5086921;28;20685;-62
2022/03/02 12:19:20;;;;;;;8.63;5.22;;;;;;;;;;5086757;28;20043;-59
2022/03/02 12:21:45;;;;;;;6.85;4.30;;;;;;;;;;5087994;28;20085;-59
2022/03/02 12:24:12;;;;;;;9.30;4.90;;;;;;;;;;5087242;28;20024;-60
2022/03/02 12:26:39;;;;;;;10.10;4.88;;;;;;;;;;5089235;28;20516;-60
2022/03/02 12:29:08;;;;;;;11.95;4.80;;;;;;;;;;5072616;28;20149;-59
2022/03/02 12:31:34;;;;;;;10.32;4.90;;;;;;;;;;5074630;28;20494;-59
2022/03/02 12:34:12;;;;;;;7.68;4.63;;;;;;;;;;5070851;28;20020;-60
2022/03/02 12:36:39;;;;;;;13.05;5.05;;;;;;;;;;5087346;28;20032;-59
2022/03/02 12:39:04;;;;;;;7.97;4.70;;;;;;;;;;5088411;28;20032;-59
2022/03/02 12:41:30;;;;;;;9.98;4.78;;;;;;;;;;5089431;28;20472;-58
2022/03/02 12:43:58;;;;;;;8.40;4.40;;;;;;;;;;5089270;28;20087;-59
2022/03/02 12:46:32;;;;;;;9.00;4.95;;;;;;;;;;5089795;28;20028;-58
2022/03/02 12:48:59;;;;;;;7.55;4.57;;;;;;;;;;5088364;28;20040;-60
2022/03/02 12:51:28;;;;;;;12.75;5.40;;;;;;;;;;5089422;28;20484;-60
2022/03/02 12:53:54;;;;;;;9.48;4.97;;;;;;;;;;5090467;28;20035;-59
2022/03/02 12:56:19;;;;;;;11.15;5.32;;;;;;;;;;5089422;28;20028;-59
2022/03/02 12:58:45;;;;;;;8.63;4.43;;;;;;;;;;5088412;28;20024;-60
2022/03/02 13:01:10;;;;;;;10.48;4.80;;;;;;;;;;5087157;28;20395;-60
2022/03/02 13:03:49;;;;;;;8.45;4.90;;;;;;;;;;5088680;28;20067;-58
2022/03/02 13:06:24;;;;;;;9.90;4.85;;;;;;;;;;5088186;28;20020;-58
2022/03/02 13:08:56;;;;;;;9.38;4.20;;;;;;;;;;5086420;28;20059;-60
2022/03/02 13:11:28;;;;;;;10.63;4.90;;;;;;;;;;5087742;28;20505;-60
2022/03/02 13:13:54;;;;;;;12.05;5.03;;;;;;;;;;5087429;28;20076;-59
2022/03/02 13:16:23;;;;;;;11.63;5.70;;;;;;;;;;5087078;28;20032;-59
2022/03/02 13:18:51;;;;;;;7.80;4.95;;;;;;;;;;5086838;28;20039;-60
2022/03/02 13:21:21;;;;;;;9.52;5.03;;;;;;;;;;5089706;28;20024;-60
2022/03/02 13:24:14;;;;;;;8.05;4.85;;;;;;;;;;5084607;28;20028;-59
2022/03/02 13:26:57;;;;;;;8.43;4.95;;;;;;;;;;5089322;28;20031;-60
2022/03/02 13:29:28;;;;;;;12.05;5.45;;;;;;;;;;5086634;28;20372;-61
2022/03/02 13:32:03;;;;;;;10.45;4.93;;;;;;;;;;5089801;28;20050;-60
2022/03/02 13:34:31;;;;;;;15.23;5.13;;;;;;;;;;5089526;28;20044;-60
2022/03/02 13:36:58;;;;;;;8.23;4.40;;;;;;;;;;5088329;28;20119;-58
2022/03/02 13:39:31;;;;;;;7.65;4.75;;;;;;;;;;5068078;28;20082;-59
2022/03/02 13:42:27;;;;;;;6.26;4.31;;;;;;;;;;2585311;28;10004089;-58
2022/03/02 13:45:08;;;;;;;7.45;4.35;;;;;;;;;;3682651;28;10001209;-57
2022/03/02 13:47:33;;;;;;;7.47;4.35;;;;;;;;;;5084980;28;20411;-60
2022/03/02 13:50:07;;;;;;;6.20;4.13;;;;;;;;;;5084455;28;20032;-60
2022/03/02 13:52:33;;;;;;;5.38;4.15;;;;;;;;;;5086053;28;20484;-63
2022/03/02 13:55:12;;;;;;;8.45;4.22;;;;;;;;;;5087950;28;20035;-59
2022/03/02 13:57:37;;;;;;;7.57;4.57;;;;;;;;;;5089977;28;20024;-61
2022/03/02 14:00:18;;;;;;;5.63;4.28;;;;;;;;;;5085854;28;20593;-61
2022/03/02 14:02:45;;;;;;;8.13;4.28;;;;;;;;;;5088728;28;20054;-62
2022/03/02 14:05:10;;;;;;;8.65;4.63;;;;;;;;;;5086733;28;20029;-57
2022/03/02 14:07:36;;;;;;;9.27;4.95;;;;;;;;;;5090388;28;20793;-61
2022/03/02 14:10:14;;;;;;;5.97;4.15;;;;;;;;;;5089210;28;20036;-59
2022/03/02 14:12:58;;;;;;;8.50;4.57;;;;;;;;;;5087752;28;20031;-57
2022/03/02 14:15:31;;;;;;;7.28;4.30;;;;;;;;;;5085721;28;20153;-60
2022/03/02 14:17:57;;;;;;;;;;;;;;;;;;5084442;28;20019;-59
2022/03/02 14:20:28;;;;;;;6.90;3.97;;;;;;;;;;5086998;28;19916;-58
2022/03/02 14:23:09;;;;;;;8.50;4.50;;;;;;;;;;5087529;28;20036;-60
2022/03/02 14:25:37;;;;;;;6.47;4.18;;;;;;;;;;5085547;28;20138;-60
2022/03/02 14:28:07;;;;;;;5.97;4.13;;;;;;;;;;5089087;28;20372;-60
2022/03/02 14:30:34;;;;;;;7.07;4.25;;;;;;;;;;5085357;28;20053;-60
2022/03/02 14:33:00;;;;;;;8.20;4.55;;;;;;;;;;5089221;28;20043;-60
2022/03/02 14:35:28;;;;;;;8.95;3.90;;;;;;;;;;5085891;28;20483;-60
2022/03/02 14:37:56;;;;;;;7.68;4.20;;;;;;;;;;5087428;28;20035;-61
2022/03/02 14:40:29;;;;;;;6.25;4.07;;;;;;;;;;5087177;28;20484;-61
2022/03/02 14:43:04;;;;;;;10.13;4.47;;;;;;;;;;5090579;28;20096;-61
2022/03/02 14:45:34;;;;;;;7.47;4.45;;;;;;;;;;5090821;28;20512;-59